sensor_id;sensor_type;location;lat;lon;timestamp;pressure;altitude;pressure_sealevel;temperature;humidity
6030;BME280;3043;42.682;23.376;2023-02-20T00:00:18;95225.41;;;11.09;100.00
6030;BME280;3043;42.682;23.376;2023-02-20T00:02:46;95227.19;;;11.07;100.00
6030;BME280;3043;42.682;23.376;2023-02-20T00:05:12;95224.34;;;11.19;100.00
6030;BME280;3043;42.682;23.376;2023-02-20T00:07:38;95219.28;;;11.13;100.00
6030;BME280;3043;42.682;23.376;2023-02-20T00:10:04;95226.38;;;11.05;100.00
6030;BME280;3043;42.682;23.376;2023-02-20T00:12:30;95232.31;;;11.10;100.00
6030;BME280;3043;42.682;23.376;2023-02-20T00:14:57;95229.00;;;11.04;100.00
6030;BME280;3043;42.682;23.376;2023-02-20T00:17:22;95220.25;;;11.08;100.00
6030;BME280;3043;42.682;23.376;2023-02-20T00:19:47;95231.50;;;11.08;100.00
6030;BME280;3043;42.682;23.376;2023-02-20T00:22:13;95234.31;;;10.98;100.00
6030;BME280;3043;42.682;23.376;2023-02-20T00:24:38;95228.41;;;10.91;100.00
6030;BME280;3043;42.682;23.376;2023-02-20T00:27:04;95236.88;;;10.99;100.00
6030;BME280;3043;42.682;23.376;2023-02-20T00:29:29;95242.19;;;10.93;100.00
6030;BME280;3043;42.682;23.376;2023-02-20T00:31:57;95231.84;;;10.93;100.00
6030;BME280;3043;42.682;23.376;2023-02-20T00:34:25;95237.91;;;10.92;100.00
6030;BME280;3043;42.682;23.376;2023-02-20T00:36:51;95236.03;;;10.97;100.00
6030;BME280;3043;42.682;23.376;2023-02-20T00:39:17;95225.03;;;10.89;100.00
6030;BME280;3043;42.682;23.376;2023-02-20T00:41:42;95220.91;;;10.79;100.00
6030;BME280;3043;42.682;23.376;2023-02-20T00:44:08;95213.69;;;10.55;100.00
6030;BME280;3043;42.682;23.376;2023-02-20T00:46:33;95211.78;;;10.63;100.00
6030;BME280;3043;42.682;23.376;2023-02-20T00:48:59;95225.56;;;10.63;100.00
6030;BME280;3043;42.682;23.376;2023-02-20T00:51:25;95223.25;;;10.50;100.00
6030;BME280;3043;42.682;23.376;2023-02-20T00:53:50;95232.75;;;10.51;100.00
6030;BME280;3043;42.682;23.376;2023-02-20T00:56:16;95232.00;;;10.46;100.00
6030;BME280;3043;42.682;23.376;2023-02-20T00:58:41;95225.97;;;10.44;100.00
6030;BME280;3043;42.682;23.376;2023-02-20T01:01:07;95243.28;;;10.42;100.00
6030;BME280;3043;42.682;23.376;2023-02-20T01:03:33;95245.22;;;10.31;100.00
6030;BME280;3043;42.682;23.376;2023-02-20T01:05:58;95253.06;;;10.28;100.00
6030;BME280;3043;42.682;23.376;2023-02-20T01:08:24;95259.81;;;10.33;100.00
6030;BME280;3043;42.682;23.376;2023-02-20T01:10:49;95263.38;;;10.29;100.00
6030;BME280;3043;42.682;23.376;2023-02-20T01:13:15;95270.25;;;10.30;100.00
6030;BME280;3043;42.682;23.376;2023-02-20T01:15:41;95271.81;;;10.39;100.00
6030;BME280;3043;42.682;23.376;2023-02-20T01:18:07;95265.97;;;10.28;100.00
6030;BME280;3043;42.682;23.376;2023-02-20T01:20:32;95286.44;;;10.40;100.00
6030;BME280;3043;42.682;23.376;2023-02-20T01:22:58;95283.09;;;10.35;100.00
6030;BME280;3043;42.682;23.376;2023-02-20T01:25:24;95296.81;;;10.40;100.00
6030;BME280;3043;42.682;23.376;2023-02-20T01:27:50;95292.59;;;10.34;100.00
6030;BME280;3043;42.682;23.376;2023-02-20T01:30:15;95302.84;;;10.40;100.00
6030;BME280;3043;42.682;23.376;2023-02-20T01:32:41;95307.50;;;10.22;100.00
6030;BME280;3043;42.682;23.376;2023-02-20T01:35:07;95291.13;;;10.20;100.00
6030;BME280;3043;42.682;23.376;2023-02-20T01:37:32;95286.78;;;10.22;100.00
6030;BME280;3043;42.682;23.376;2023-02-20T01:39:58;95291.34;;;10.09;100.00
6030;BME280;3043;42.682;23.376;2023-02-20T01:42:28;95283.50;;;10.14;100.00
6030;BME280;3043;42.682;23.376;2023-02-20T01:44:54;95286.97;;;10.13;100.00
6030;BME280;3043;42.682;23.376;2023-02-20T01:47:21;95288.59;;;10.17;100.00
6030;BME280;3043;42.682;23.376;2023-02-20T01:50:00;95293.84;;;10.14;100.00
6030;BME280;3043;42.682;23.376;2023-02-20T01:52:33;95300.53;;;10.24;100.00
6030;BME280;3043;42.682;23.376;2023-02-20T01:57:40;95287.41;;;10.36;100.00
6030;BME280;3043;42.682;23.376;2023-02-20T02:00:15;95293.59;;;10.26;100.00
6030;BME280;3043;42.682;23.376;2023-02-20T02:02:58;95294.47;;;10.26;100.00
6030;BME280;3043;42.682;23.376;2023-02-20T02:05:25;95285.81;;;10.27;100.00
6030;BME280;3043;42.682;23.376;2023-02-20T02:07:52;95289.44;;;10.19;100.00
6030;BME280;3043;42.682;23.376;2023-02-20T02:10:35;95297.16;;;10.22;100.00
6030;BME280;3043;42.682;23.376;2023-02-20T02:13:02;95293.66;;;10.23;100.00
6030;BME280;3043;42.682;23.376;2023-02-20T02:15:27;95290.41;;;10.12;100.00
6030;BME280;3043;42.682;23.376;2023-02-20T02:18:02;95297.25;;;10.16;100.00
6030;BME280;3043;42.682;23.376;2023-02-20T02:24:05;95303.41;;;10.09;100.00
6030;BME280;3043;42.682;23.376;2023-02-20T02:39:48;95315.63;;;9.48;100.00
6030;BME280;3043;42.682;23.376;2023-02-20T02:47:33;95331.66;;;9.08;100.00
6030;BME280;3043;42.682;23.376;2023-02-20T02:52:39;95350.59;;;9.11;100.00
6030;BME280;3043;42.682;23.376;2023-02-20T02:57:42;95355.72;;;9.14;100.00
6030;BME280;3043;42.682;23.376;2023-02-20T03:00:18;95360.16;;;9.01;100.00
6030;BME280;3043;42.682;23.376;2023-02-20T03:03:02;95357.59;;;8.99;100.00
6030;BME280;3043;42.682;23.376;2023-02-20T03:08:40;95354.25;;;8.94;100.00
6030;BME280;3043;42.682;23.376;2023-02-20T03:11:11;95344.88;;;8.86;100.00
6030;BME280;3043;42.682;23.376;2023-02-20T03:13:44;95356.94;;;8.87;100.00
6030;BME280;3043;42.682;23.376;2023-02-20T03:16:36;95361.09;;;8.97;100.00
6030;BME280;3043;42.682;23.376;2023-02-20T03:19:07;95356.03;;;8.89;100.00
6030;BME280;3043;42.682;23.376;2023-02-20T03:21:40;95363.72;;;8.92;100.00
6030;BME280;3043;42.682;23.376;2023-02-20T03:24:08;95358.59;;;8.91;100.00
6030;BME280;3043;42.682;23.376;2023-02-20T03:26:36;95370.75;;;8.81;100.00
6030;BME280;3043;42.682;23.376;2023-02-20T03:29:06;95363.00;;;8.81;100.00
6030;BME280;3043;42.682;23.376;2023-02-20T03:34:08;95390.69;;;8.67;100.00
6030;BME280;3043;42.682;23.376;2023-02-20T03:37:04;95380.38;;;8.67;100.00
6030;BME280;3043;42.682;23.376;2023-02-20T03:39:52;95378.69;;;8.63;100.00
6030;BME280;3043;42.682;23.376;2023-02-20T03:42:40;95368.34;;;8.66;100.00
6030;BME280;3043;42.682;23.376;2023-02-20T03:45:27;95388.13;;;8.66;100.00
6030;BME280;3043;42.682;23.376;2023-02-20T03:47:57;95377.75;;;8.73;100.00
6030;BME280;3043;42.682;23.376;2023-02-20T03:50:24;95393.22;;;8.70;100.00
6030;BME280;3043;42.682;23.376;2023-02-20T03:52:49;95386.31;;;8.75;100.00
6030;BME280;3043;42.682;23.376;2023-02-20T03:55:15;95382.00;;;8.77;100.00
6030;BME280;3043;42.682;23.376;2023-02-20T03:57:52;95381.06;;;8.81;100.00
6030;BME280;3043;42.682;23.376;2023-02-20T04:00:32;95389.75;;;8.74;100.00
6030;BME280;3043;42.682;23.376;2023-02-20T04:03:04;95368.09;;;8.87;100.00
6030;BME280;3043;42.682;23.376;2023-02-20T04:05:35;95374.34;;;8.68;100.00
6030;BME280;3043;42.682;23.376;2023-02-20T04:08:25;95380.44;;;8.61;100.00
6030;BME280;3043;42.682;23.376;2023-02-20T04:10:58;95378.75;;;8.57;100.00
6030;BME280;3043;42.682;23.376;2023-02-20T04:13:24;95394.25;;;8.57;100.00
6030;BME280;3043;42.682;23.376;2023-02-20T04:15:51;95390.72;;;8.64;100.00
6030;BME280;3043;42.682;23.376;2023-02-20T04:18:18;95386.38;;;8.69;100.00
6030;BME280;3043;42.682;23.376;2023-02-20T04:20:47;95383.84;;;8.63;100.00
6030;BME280;3043;42.682;23.376;2023-02-20T04:23:17;95402.66;;;8.74;100.00
6030;BME280;3043;42.682;23.376;2023-02-20T04:25:59;95407.03;;;8.68;100.00
6030;BME280;3043;42.682;23.376;2023-02-20T04:28:26;95394.13;;;8.69;100.00
6030;BME280;3043;42.682;23.376;2023-02-20T04:30:52;95392.56;;;8.56;100.00
6030;BME280;3043;42.682;23.376;2023-02-20T04:33:18;95394.31;;;8.51;100.00
6030;BME280;3043;42.682;23.376;2023-02-20T04:35:44;95395.97;;;8.55;100.00
6030;BME280;3043;42.682;23.376;2023-02-20T04:38:10;95408.75;;;8.66;100.00
6030;BME280;3043;42.682;23.376;2023-02-20T04:40:36;95404.44;;;8.68;100.00
6030;BME280;3043;42.682;23.376;2023-02-20T04:43:02;95399.44;;;8.54;100.00
6030;BME280;3043;42.682;23.376;2023-02-20T04:45:28;95401.22;;;8.46;100.00
6030;BME280;3043;42.682;23.376;2023-02-20T04:47:54;95408.19;;;8.40;100.00
6030;BME280;3043;42.682;23.376;2023-02-20T04:50:28;95410.91;;;8.28;100.00
6030;BME280;3043;42.682;23.376;2023-02-20T04:52:53;95414.28;;;8.31;100.00
6030;BME280;3043;42.682;23.376;2023-02-20T04:55:19;95422.84;;;8.36;100.00
6030;BME280;3043;42.682;23.376;2023-02-20T04:57:49;95432.38;;;8.25;100.00
6030;BME280;3043;42.682;23.376;2023-02-20T05:00:17;95434.13;;;8.26;100.00
6030;BME280;3043;42.682;23.376;2023-02-20T05:02:42;95440.94;;;8.30;100.00
6030;BME280;3043;42.682;23.376;2023-02-20T05:05:18;95439.19;;;8.37;100.00
6030;BME280;3043;42.682;23.376;2023-02-20T05:07:44;95440.09;;;8.28;100.00
6030;BME280;3043;42.682;23.376;2023-02-20T05:10:14;95440.94;;;8.30;100.00
6030;BME280;3043;42.682;23.376;2023-02-20T05:12:40;95446.13;;;8.27;100.00
6030;BME280;3043;42.682;23.376;2023-02-20T05:15:05;95454.72;;;8.29;100.00
6030;BME280;3043;42.682;23.376;2023-02-20T05:17:31;95453.06;;;8.16;100.00
6030;BME280;3043;42.682;23.376;2023-02-20T05:19:56;95446.09;;;8.30;100.00
6030;BME280;3043;42.682;23.376;2023-02-20T05:22:22;95421.16;;;8.32;100.00
6030;BME280;3043;42.682;23.376;2023-02-20T05:24:49;95433.28;;;8.23;100.00
6030;BME280;3043;42.682;23.376;2023-02-20T05:27:17;95456.41;;;8.30;100.00
6030;BME280;3043;42.682;23.376;2023-02-20T05:29:48;95460.69;;;8.34;100.00
6030;BME280;3043;42.682;23.376;2023-02-20T05:32:15;95465.00;;;8.32;100.00
6030;BME280;3043;42.682;23.376;2023-02-20T05:34:42;95464.84;;;8.50;100.00
6030;BME280;3043;42.682;23.376;2023-02-20T05:37:08;95493.88;;;8.73;100.00
6030;BME280;3043;42.682;23.376;2023-02-20T05:39:34;95494.41;;;9.02;100.00
6030;BME280;3043;42.682;23.376;2023-02-20T05:41:59;95496.44;;;9.52;100.00
6030;BME280;3043;42.682;23.376;2023-02-20T05:44:24;95475.31;;;9.84;100.00
6030;BME280;3043;42.682;23.376;2023-02-20T05:46:50;95489.66;;;10.04;100.00
6030;BME280;3043;42.682;23.376;2023-02-20T05:49:16;95502.25;;;10.30;100.00
6030;BME280;3043;42.682;23.376;2023-02-20T05:51:42;95497.75;;;10.39;100.00
6030;BME280;3043;42.682;23.376;2023-02-20T05:54:07;95490.63;;;10.55;100.00
6030;BME280;3043;42.682;23.376;2023-02-20T05:56:33;95490.53;;;11.08;100.00
6030;BME280;3043;42.682;23.376;2023-02-20T05:58:59;95493.94;;;11.10;100.00
6030;BME280;3043;42.682;23.376;2023-02-20T06:01:29;95487.84;;;11.13;100.00
6030;BME280;3043;42.682;23.376;2023-02-20T06:03:55;95485.00;;;11.26;100.00
6030;BME280;3043;42.682;23.376;2023-02-20T06:06:20;95488.13;;;11.43;100.00
6030;BME280;3043;42.682;23.376;2023-02-20T06:08:46;95483.44;;;12.01;100.00
6030;BME280;3043;42.682;23.376;2023-02-20T06:11:13;95506.56;;;11.72;100.00
6030;BME280;3043;42.682;23.376;2023-02-20T06:13:43;95511.03;;;12.05;100.00
6030;BME280;3043;42.682;23.376;2023-02-20T06:16:10;95501.50;;;12.06;100.00
6030;BME280;3043;42.682;23.376;2023-02-20T06:18:39;95505.97;;;11.99;97.62
6030;BME280;3043;42.682;23.376;2023-02-20T06:21:09;95511.97;;;12.39;96.50
6030;BME280;3043;42.682;23.376;2023-02-20T06:23:38;95511.81;;;12.09;94.17
6030;BME280;3043;42.682;23.376;2023-02-20T06:26:05;95505.59;;;12.52;92.47
6030;BME280;3043;42.682;23.376;2023-02-20T06:28:30;95518.63;;;12.86;88.40
6030;BME280;3043;42.682;23.376;2023-02-20T06:30:56;95530.00;;;13.48;82.06
6030;BME280;3043;42.682;23.376;2023-02-20T06:33:21;95528.09;;;13.22;81.77
6030;BME280;3043;42.682;23.376;2023-02-20T06:35:47;95509.03;;;13.54;79.72
6030;BME280;3043;42.682;23.376;2023-02-20T06:38:12;95512.69;;;13.47;79.44
6030;BME280;3043;42.682;23.376;2023-02-20T06:40:38;95525.28;;;13.30;80.10
6030;BME280;3043;42.682;23.376;2023-02-20T06:43:04;95523.59;;;13.61;78.02
6030;BME280;3043;42.682;23.376;2023-02-20T06:45:29;95527.47;;;14.35;74.42
6030;BME280;3043;42.682;23.376;2023-02-20T06:47:55;95519.94;;;13.97;73.27
6030;BME280;3043;42.682;23.376;2023-02-20T06:50:20;95525.53;;;13.53;75.07
6030;BME280;3043;42.682;23.376;2023-02-20T06:52:46;95527.84;;;13.31;75.35
6030;BME280;3043;42.682;23.376;2023-02-20T06:55:11;95538.03;;;13.07;76.12
6030;BME280;3043;42.682;23.376;2023-02-20T06:57:36;95520.66;;;12.74;79.11
6030;BME280;3043;42.682;23.376;2023-02-20T07:00:03;95523.69;;;12.55;79.93
6030;BME280;3043;42.682;23.376;2023-02-20T07:02:29;95545.25;;;12.22;82.03
6030;BME280;3043;42.682;23.376;2023-02-20T07:04:54;95529.69;;;11.83;84.67
6030;BME280;3043;42.682;23.376;2023-02-20T07:07:20;95542.00;;;12.13;84.04
6030;BME280;3043;42.682;23.376;2023-02-20T07:09:45;95542.91;;;12.48;81.91
6030;BME280;3043;42.682;23.376;2023-02-20T07:12:11;95547.50;;;12.74;80.17
6030;BME280;3043;42.682;23.376;2023-02-20T07:14:36;95541.25;;;13.16;78.79
6030;BME280;3043;42.682;23.376;2023-02-20T07:17:02;95545.88;;;14.00;72.94
6030;BME280;3043;42.682;23.376;2023-02-20T07:19:27;95543.06;;;13.77;72.08
6030;BME280;3043;42.682;23.376;2023-02-20T07:21:53;95539.63;;;14.05;69.60
6030;BME280;3043;42.682;23.376;2023-02-20T07:24:18;95545.13;;;14.25;66.26
6030;BME280;3043;42.682;23.376;2023-02-20T07:26:44;95554.19;;;14.42;64.84
6030;BME280;3043;42.682;23.376;2023-02-20T07:29:11;95542.91;;;14.41;61.94
6030;BME280;3043;42.682;23.376;2023-02-20T07:31:37;95552.16;;;13.62;63.73
6030;BME280;3043;42.682;23.376;2023-02-20T07:34:03;95554.16;;;13.53;64.55
6030;BME280;3043;42.682;23.376;2023-02-20T07:36:28;95568.06;;;13.52;64.25
6030;BME280;3043;42.682;23.376;2023-02-20T07:38:55;95559.28;;;13.22;65.71
6030;BME280;3043;42.682;23.376;2023-02-20T07:41:23;95557.03;;;13.42;64.17
6030;BME280;3043;42.682;23.376;2023-02-20T07:43:49;95569.00;;;13.80;62.08
6030;BME280;3043;42.682;23.376;2023-02-20T07:46:14;95569.59;;;13.59;61.95
6030;BME280;3043;42.682;23.376;2023-02-20T07:48:39;95555.69;;;13.90;60.41
6030;BME280;3043;42.682;23.376;2023-02-20T07:51:05;95570.97;;;13.06;63.19
6030;BME280;3043;42.682;23.376;2023-02-20T07:53:31;95568.13;;;13.49;61.13
6030;BME280;3043;42.682;23.376;2023-02-20T07:55:56;95589.09;;;13.43;60.16
6030;BME280;3043;42.682;23.376;2023-02-20T07:58:22;95584.59;;;13.80;59.06
6030;BME280;3043;42.682;23.376;2023-02-20T08:00:48;95581.94;;;13.51;59.74
6030;BME280;3043;42.682;23.376;2023-02-20T08:03:16;95581.34;;;13.08;60.78
6030;BME280;3043;42.682;23.376;2023-02-20T08:05:42;95575.84;;;13.20;60.49
6030;BME280;3043;42.682;23.376;2023-02-20T08:08:07;95592.72;;;14.00;58.93
6030;BME280;3043;42.682;23.376;2023-02-20T08:10:32;95590.94;;;14.60;57.21
6030;BME280;3043;42.682;23.376;2023-02-20T08:12:58;95602.38;;;14.56;53.86
6030;BME280;3043;42.682;23.376;2023-02-20T08:15:23;95587.47;;;14.61;54.01
6030;BME280;3043;42.682;23.376;2023-02-20T08:17:49;95580.69;;;15.09;51.68
6030;BME280;3043;42.682;23.376;2023-02-20T08:20:16;95590.91;;;15.15;50.84
6030;BME280;3043;42.682;23.376;2023-02-20T08:22:43;95582.69;;;15.27;50.62
6030;BME280;3043;42.682;23.376;2023-02-20T08:25:09;95583.00;;;15.18;49.83
6030;BME280;3043;42.682;23.376;2023-02-20T08:27:35;95576.44;;;15.31;49.95
6030;BME280;3043;42.682;23.376;2023-02-20T08:30:05;95562.16;;;15.69;49.31
6030;BME280;3043;42.682;23.376;2023-02-20T08:32:31;95585.38;;;15.76;48.77
6030;BME280;3043;42.682;23.376;2023-02-20T08:34:56;95562.03;;;15.96;47.03
6030;BME280;3043;42.682;23.376;2023-02-20T08:37:21;95553.56;;;15.65;47.24
6030;BME280;3043;42.682;23.376;2023-02-20T08:39:47;95585.34;;;16.01;46.41
6030;BME280;3043;42.682;23.376;2023-02-20T08:42:16;95560.06;;;16.01;46.33
6030;BME280;3043;42.682;23.376;2023-02-20T08:44:41;95587.78;;;16.06;45.81
6030;BME280;3043;42.682;23.376;2023-02-20T08:47:07;95572.78;;;16.11;45.39
6030;BME280;3043;42.682;23.376;2023-02-20T08:49:32;95594.09;;;15.75;46.32
6030;BME280;3043;42.682;23.376;2023-02-20T08:51:58;95581.41;;;15.89;45.93
6030;BME280;3043;42.682;23.376;2023-02-20T08:54:23;95594.28;;;16.19;45.68
6030;BME280;3043;42.682;23.376;2023-02-20T08:56:49;95604.94;;;16.13;45.28
6030;BME280;3043;42.682;23.376;2023-02-20T08:59:14;95591.16;;;16.32;43.55
6030;BME280;3043;42.682;23.376;2023-02-20T09:01:40;95583.72;;;16.89;43.33
6030;BME280;3043;42.682;23.376;2023-02-20T09:04:07;95569.56;;;16.50;43.62
6030;BME280;3043;42.682;23.376;2023-02-20T09:06:33;95554.72;;;17.37;41.96
6030;BME280;3043;42.682;23.376;2023-02-20T09:08:59;95580.31;;;16.66;42.50
6030;BME280;3043;42.682;23.376;2023-02-20T09:11:24;95588.09;;;16.44;42.68
6030;BME280;3043;42.682;23.376;2023-02-20T09:13:50;95580.25;;;16.89;42.37
6030;BME280;3043;42.682;23.376;2023-02-20T09:16:19;95569.03;;;16.41;42.53
6030;BME280;3043;42.682;23.376;2023-02-20T09:18:44;95564.13;;;16.78;41.92
6030;BME280;3043;42.682;23.376;2023-02-20T09:21:11;95561.00;;;16.24;42.97
6030;BME280;3043;42.682;23.376;2023-02-20T09:23:37;95587.09;;;16.70;42.71
6030;BME280;3043;42.682;23.376;2023-02-20T09:26:03;95569.38;;;16.78;41.94
6030;BME280;3043;42.682;23.376;2023-02-20T09:28:30;95570.34;;;16.29;42.81
6030;BME280;3043;42.682;23.376;2023-02-20T09:30:55;95553.81;;;16.75;42.13
6030;BME280;3043;42.682;23.376;2023-02-20T09:33:22;95568.75;;;16.71;42.25
6030;BME280;3043;42.682;23.376;2023-02-20T09:35:47;95566.13;;;16.27;42.71
6030;BME280;3043;42.682;23.376;2023-02-20T09:38:17;95579.16;;;15.54;44.25
6030;BME280;3043;42.682;23.376;2023-02-20T09:40:45;95561.06;;;15.74;45.05
6030;BME280;3043;42.682;23.376;2023-02-20T09:43:34;95575.03;;;15.98;44.44
6030;BME280;3043;42.682;23.376;2023-02-20T09:46:18;95540.56;;;16.12;44.34
6030;BME280;3043;42.682;23.376;2023-02-20T09:48:47;95568.81;;;16.00;44.85
6030;BME280;3043;42.682;23.376;2023-02-20T09:51:22;95572.75;;;15.87;44.77
6030;BME280;3043;42.682;23.376;2023-02-20T09:54:07;95563.38;;;16.07;44.89
6030;BME280;3043;42.682;23.376;2023-02-20T09:56:38;95564.50;;;16.23;45.06
6030;BME280;3043;42.682;23.376;2023-02-20T09:59:24;95562.91;;;16.42;44.92
6030;BME280;3043;42.682;23.376;2023-02-20T10:04:20;95571.63;;;15.71;44.69
6030;BME280;3043;42.682;23.376;2023-02-20T10:06:49;95571.44;;;16.24;44.02
6030;BME280;3043;42.682;23.376;2023-02-20T10:09:16;95560.00;;;16.51;43.46
6030;BME280;3043;42.682;23.376;2023-02-20T10:19:35;95555.75;;;15.77;44.08
6030;BME280;3043;42.682;23.376;2023-02-20T10:22:22;95556.78;;;16.20;43.10
6030;BME280;3043;42.682;23.376;2023-02-20T10:25:02;95543.59;;;16.69;42.23
6030;BME280;3043;42.682;23.376;2023-02-20T10:30:12;95546.56;;;17.03;40.93
6030;BME280;3043;42.682;23.376;2023-02-20T10:32:49;95553.56;;;17.02;40.69
6030;BME280;3043;42.682;23.376;2023-02-20T10:35:23;95541.72;;;17.14;40.16
6030;BME280;3043;42.682;23.376;2023-02-20T10:37:54;95528.84;;;16.88;39.95
6030;BME280;3043;42.682;23.376;2023-02-20T10:43:27;95553.59;;;16.58;40.59
6030;BME280;3043;42.682;23.376;2023-02-20T10:46:13;95534.53;;;16.56;40.34
6030;BME280;3043;42.682;23.376;2023-02-20T10:48:40;95541.75;;;16.92;39.69
6030;BME280;3043;42.682;23.376;2023-02-20T10:51:14;95531.31;;;16.71;39.74
6030;BME280;3043;42.682;23.376;2023-02-20T10:53:48;95536.19;;;16.80;40.40
6030;BME280;3043;42.682;23.376;2023-02-20T11:01:23;95523.03;;;16.81;39.84
6030;BME280;3043;42.682;23.376;2023-02-20T11:04:04;95524.13;;;16.97;39.85
6030;BME280;3043;42.682;23.376;2023-02-20T11:06:55;95524.44;;;16.24;40.39
6030;BME280;3043;42.682;23.376;2023-02-20T11:09:21;95493.91;;;16.02;40.54
6030;BME280;3043;42.682;23.376;2023-02-20T11:11:52;95495.25;;;16.13;40.62
6030;BME280;3043;42.682;23.376;2023-02-20T11:14:22;95505.00;;;16.08;41.40
6030;BME280;3043;42.682;23.376;2023-02-20T11:17:08;95515.66;;;15.78;42.21
6030;BME280;3043;42.682;23.376;2023-02-20T11:19:41;95503.84;;;15.93;42.64
6030;BME280;3043;42.682;23.376;2023-02-20T11:22:08;95494.28;;;16.15;42.65
6030;BME280;3043;42.682;23.376;2023-02-20T11:24:38;95488.66;;;15.56;43.68
6030;BME280;3043;42.682;23.376;2023-02-20T11:27:16;95498.94;;;15.61;43.78
6030;BME280;3043;42.682;23.376;2023-02-20T11:30:01;95484.56;;;15.72;43.62
6030;BME280;3043;42.682;23.376;2023-02-20T11:32:29;95496.97;;;15.67;43.40
6030;BME280;3043;42.682;23.376;2023-02-20T11:37:38;95492.28;;;15.52;43.77
6030;BME280;3043;42.682;23.376;2023-02-20T11:40:13;95485.97;;;15.33;43.93
6030;BME280;3043;42.682;23.376;2023-02-20T11:42:38;95499.53;;;15.44;43.80
6030;BME280;3043;42.682;23.376;2023-02-20T11:45:15;95495.91;;;15.48;43.47
6030;BME280;3043;42.682;23.376;2023-02-20T11:47:42;95502.13;;;15.69;43.70
6030;BME280;3043;42.682;23.376;2023-02-20T11:52:36;95483.22;;;16.30;42.81
6030;BME280;3043;42.682;23.376;2023-02-20T11:55:19;95457.69;;;15.93;42.82
6030;BME280;3043;42.682;23.376;2023-02-20T11:57:45;95471.53;;;15.72;43.12
6030;BME280;3043;42.682;23.376;2023-02-20T12:00:20;95489.56;;;15.55;43.44
6030;BME280;3043;42.682;23.376;2023-02-20T12:02:52;95458.59;;;15.69;42.80
6030;BME280;3043;42.682;23.376;2023-02-20T12:05:19;95463.53;;;15.29;43.51
6030;BME280;3043;42.682;23.376;2023-02-20T12:13:01;95478.41;;;15.26;43.73
6030;BME280;3043;42.682;23.376;2023-02-20T12:15:28;95471.72;;;15.19;43.73
6030;BME280;3043;42.682;23.376;2023-02-20T12:20:26;95488.59;;;14.83;44.19
6030;BME280;3043;42.682;23.376;2023-02-20T12:25:52;95485.03;;;14.59;44.47
6030;BME280;3043;42.682;23.376;2023-02-20T12:31:17;95511.91;;;14.61;44.57
6030;BME280;3043;42.682;23.376;2023-02-20T12:33:53;95489.13;;;14.40;44.52
6030;BME280;3043;42.682;23.376;2023-02-20T12:36:27;95485.63;;;14.41;45.17
6030;BME280;3043;42.682;23.376;2023-02-20T12:39:05;95487.41;;;14.39;45.21
6030;BME280;3043;42.682;23.376;2023-02-20T12:49:41;95466.81;;;14.59;44.86
6030;BME280;3043;42.682;23.376;2023-02-20T13:02:48;95495.78;;;14.76;45.30
6030;BME280;3043;42.682;23.376;2023-02-20T13:05:18;95490.06;;;14.91;44.72
6030;BME280;3043;42.682;23.376;2023-02-20T13:08:02;95483.03;;;14.93;44.28
6030;BME280;3043;42.682;23.376;2023-02-20T13:10:33;95510.84;;;14.93;44.48
6030;BME280;3043;42.682;23.376;2023-02-20T13:12:59;95501.47;;;14.87;44.41
6030;BME280;3043;42.682;23.376;2023-02-20T13:18:26;95474.31;;;14.68;44.90
6030;BME280;3043;42.682;23.376;2023-02-20T13:21:12;95492.53;;;14.42;45.42
6030;BME280;3043;42.682;23.376;2023-02-20T13:23:39;95489.31;;;14.34;45.92
6030;BME280;3043;42.682;23.376;2023-02-20T13:29:16;95499.47;;;14.14;46.89
6030;BME280;3043;42.682;23.376;2023-02-20T13:31:46;95482.06;;;14.14;46.90
6030;BME280;3043;42.682;23.376;2023-02-20T13:36:47;95509.16;;;14.09;47.36
6030;BME280;3043;42.682;23.376;2023-02-20T13:55:04;95511.41;;;13.92;48.97
6030;BME280;3043;42.682;23.376;2023-02-20T13:57:47;95507.59;;;13.74;49.83
6030;BME280;3043;42.682;23.376;2023-02-20T14:02:50;95502.47;;;13.41;50.40
6030;BME280;3043;42.682;23.376;2023-02-20T14:05:24;95505.72;;;13.49;50.85
6030;BME280;3043;42.682;23.376;2023-02-20T14:07:51;95505.88;;;13.43;51.19
6030;BME280;3043;42.682;23.376;2023-02-20T14:13:00;95497.94;;;13.17;52.10
6030;BME280;3043;42.682;23.376;2023-02-20T14:15:27;95510.19;;;13.12;52.40
6030;BME280;3043;42.682;23.376;2023-02-20T14:17:55;95522.28;;;13.13;52.95
6030;BME280;3043;42.682;23.376;2023-02-20T14:20:32;95498.34;;;13.02;52.91
6030;BME280;3043;42.682;23.376;2023-02-20T14:23:16;95517.53;;;12.95;52.99
6030;BME280;3043;42.682;23.376;2023-02-20T14:25:54;95523.63;;;12.94;53.93
6030;BME280;3043;42.682;23.376;2023-02-20T14:28:20;95522.63;;;12.98;54.09
6030;BME280;3043;42.682;23.376;2023-02-20T14:30:46;95521.25;;;12.85;54.84
6030;BME280;3043;42.682;23.376;2023-02-20T14:33:23;95529.81;;;12.90;54.73
6030;BME280;3043;42.682;23.376;2023-02-20T14:36:04;95525.88;;;12.72;55.99
6030;BME280;3043;42.682;23.376;2023-02-20T14:41:36;95542.63;;;12.61;57.04
6030;BME280;3043;42.682;23.376;2023-02-20T14:44:05;95540.06;;;12.59;58.01
6030;BME280;3043;42.682;23.376;2023-02-20T14:46:35;95543.06;;;12.42;59.07
6030;BME280;3043;42.682;23.376;2023-02-20T14:49:05;95543.38;;;12.27;60.42
6030;BME280;3043;42.682;23.376;2023-02-20T14:51:31;95547.28;;;12.08;61.24
6030;BME280;3043;42.682;23.376;2023-02-20T14:56:38;95554.88;;;12.17;61.52
6030;BME280;3043;42.682;23.376;2023-02-20T14:59:40;95558.69;;;12.01;62.20
6030;BME280;3043;42.682;23.376;2023-02-20T15:02:23;95558.88;;;11.92;62.68
6030;BME280;3043;42.682;23.376;2023-02-20T15:04:55;95549.69;;;11.76;64.03
6030;BME280;3043;42.682;23.376;2023-02-20T15:07:25;95557.00;;;11.99;64.20
6030;BME280;3043;42.682;23.376;2023-02-20T15:09:57;95554.44;;;11.97;64.61
6030;BME280;3043;42.682;23.376;2023-02-20T15:12:37;95548.88;;;11.73;65.75
6030;BME280;3043;42.682;23.376;2023-02-20T15:15:08;95542.81;;;11.75;65.50
6030;BME280;3043;42.682;23.376;2023-02-20T15:17:39;95549.75;;;11.73;65.88
6030;BME280;3043;42.682;23.376;2023-02-20T15:20:19;95529.22;;;11.61;67.76
6030;BME280;3043;42.682;23.376;2023-02-20T15:22:45;95536.13;;;11.62;68.13
6030;BME280;3043;42.682;23.376;2023-02-20T15:25:27;95534.38;;;11.64;68.35
6030;BME280;3043;42.682;23.376;2023-02-20T15:28:06;95546.59;;;11.56;68.78